Time;durP1;ratioP1;P1;durP2;ratioP2;P2;SDS_P1;SDS_P2;PMS_P1;PMS_P2;Temp;Humidity;BMP_temperature;BMP_pressure;BME280_temperature;BME280_humidity;BME280_pressure;Samples;Min_cycle;Max_cycle;Signal;HPM_P1;HPM_P2
2023/11/09 00:00:21;;;;;;;12.10;8.40;;;;;;;8.10;80.90;99861.36;103681;1255;106625;-70
2023/11/09 00:03:11;;;;;;;14.70;8.60;;;;;;;8.09;81.08;99864.16;103692;1254;138043;-70
2023/11/09 00:06:00;;;;;;;12.00;8.00;;;;;;;8.12;81.09;99862.16;103523;1253;108055;-70
2023/11/09 00:08:47;;;;;;;11.90;8.30;;;;;;;8.16;81.10;99864.28;103718;1254;95259;-70
2023/11/09 00:11:36;;;;;;;11.60;8.20;;;;;;;8.17;80.94;99871.54;103633;1254;108916;-70
2023/11/09 00:14:24;;;;;;;11.80;8.80;;;;;;;8.14;80.93;99871.79;103576;1255;108621;-70
2023/11/09 00:17:12;;;;;;;13.20;8.60;;;;;;;8.13;81.10;99871.30;103535;1256;137291;-70
2023/11/09 00:19:59;;;;;;;13.90;8.90;;;;;;;8.11;81.16;99875.18;103494;1254;108462;-70
2023/11/09 00:22:47;;;;;;;14.30;8.90;;;;;;;8.11;81.30;99874.67;103460;1254;138921;-70
2023/11/09 00:25:18;;;;;;;12.70;7.90;;;;;;;8.07;81.21;99869.73;103661;1254;110778;-70
2023/11/09 00:27:55;;;;;;;8.70;7.20;;;;;;;8.02;81.36;99869.54;103568;1251;138081;-70
2023/11/09 00:30:43;;;;;;;13.20;7.60;;;;;;;7.99;81.39;99871.17;103551;1254;96459;-70
2023/11/09 00:33:30;;;;;;;12.00;7.60;;;;;;;7.98;81.49;99867.39;103702;1254;137983;-70
2023/11/09 00:36:18;;;;;;;9.70;7.10;;;;;;;7.96;81.46;99870.58;103748;1254;96562;-70
2023/11/09 00:38:59;;;;;;;11.70;6.50;;;;;;;7.94;81.57;99866.30;103867;1253;109294;-70
2023/11/09 00:41:30;;;;;;;9.50;7.00;;;;;;;7.97;81.65;99864.47;103565;1254;107880;-70
2023/11/09 00:44:15;;;;;;;;;;;;;;;7.96;81.37;99868.83;103652;1254;96555;-70
2023/11/09 00:47:03;;;;;;;10.70;7.20;;;;;;;7.93;81.49;99865.13;103446;1254;123396;-70
2023/11/09 00:49:41;;;;;;;10.60;7.20;;;;;;;7.90;81.50;99867.79;103493;1257;96364;-70
2023/11/09 00:52:29;;;;;;;10.20;7.10;;;;;;;7.88;81.44;99867.64;103445;1254;137110;-69
2023/11/09 00:55:17;;;;;;;10.10;7.20;;;;;;;7.81;81.47;99868.04;103413;1254;108306;-70
2023/11/09 00:57:44;;;;;;;11.80;6.30;;;;;;;7.75;81.50;99872.54;103917;1251;138478;-70
2023/11/09 01:00:15;;;;;;;10.10;7.40;;;;;;;7.68;81.56;99865.25;103588;1254;107535;-70
2023/11/09 01:02:48;;;;;;;12.80;6.90;;;;;;;7.68;81.76;99876.50;103616;1254;96338;-70
2023/11/09 01:05:16;;;;;;;9.10;6.20;;;;;;;7.64;81.88;99874.89;103451;1254;138074;-70
2023/11/09 01:07:44;;;;;;;12.30;6.80;;;;;;;7.65;81.85;99872.95;103486;1256;107133;-70
2023/11/09 01:10:12;;;;;;;11.90;7.50;;;;;;;7.67;81.91;99873.94;103315;1255;137368;-70
2023/11/09 01:12:39;;;;;;;11.20;7.40;;;;;;;7.65;81.95;99875.89;103537;1254;107667;-69
2023/11/09 01:15:09;;;;;;;12.20;8.40;;;;;;;7.63;81.77;99872.84;103463;1253;137583;-69
2023/11/09 01:17:38;;;;;;;10.90;7.30;;;;;;;7.58;81.84;99873.15;103617;1254;110135;-70
2023/11/09 01:20:08;;;;;;;11.30;7.40;;;;;;;7.53;81.92;99871.34;103559;1254;108107;-69
2023/11/09 01:22:36;;;;;;;13.90;7.60;;;;;;;7.49;82.07;99873.88;103458;1254;137965;-69
2023/11/09 01:25:07;;;;;;;14.40;7.80;;;;;;;7.46;82.12;99870.50;103527;1254;108554;-70
2023/11/09 01:27:54;;;;;;;13.70;7.60;;;;;;;7.44;82.29;99873.33;103486;1253;138101;-70
2023/11/09 01:30:35;;;;;;;13.00;8.30;;;;;;;7.43;82.45;99871.09;103606;1254;110394;-69
2023/11/09 01:33:23;;;;;;;13.30;8.50;;;;;;;7.41;82.31;99874.98;103515;1256;138154;-69
2023/11/09 01:36:00;;;;;;;14.10;8.80;;;;;;;7.38;82.45;99869.34;103711;1254;96479;-69
2023/11/09 01:38:48;;;;;;;12.90;8.10;;;;;;;7.29;82.60;99872.48;103575;1253;108528;-69
2023/11/09 01:41:35;;;;;;;11.80;7.60;;;;;;;7.24;82.53;99869.50;103593;1256;96367;-70
2023/11/09 01:44:03;;;;;;;12.60;8.00;;;;;;;7.21;82.71;99868.89;103519;1252;109741;-70
2023/11/09 01:46:34;;;;;;;11.50;7.60;;;;;;;7.17;82.68;99868.63;103520;1254;138086;-70
2023/11/09 01:49:05;;;;;;;10.60;7.90;;;;;;;7.15;82.87;99866.77;103539;1254;95681;-70
2023/11/09 01:51:56;;;;;;;11.90;8.10;;;;;;;7.18;82.98;99865.85;103506;1253;137746;-70
2023/11/09 01:54:44;;;;;;;11.60;8.40;;;;;;;7.18;82.88;99863.59;103560;1256;96464;-70
2023/11/09 01:57:33;;;;;;;16.20;8.90;;;;;;;7.15;82.84;99866.23;103456;1254;137422;-70
2023/11/09 02:00:21;;;;;;;15.60;9.30;;;;;;;7.13;82.73;99862.50;103485;1256;110083;-70
2023/11/09 02:02:55;;;;;;;12.30;8.50;;;;;;;7.10;82.81;99867.42;103490;1253;96986;-70
2023/11/09 02:05:43;;;;;;;16.10;8.60;;;;;;;7.09;83.00;99867.79;103470;1254;108108;-70
2023/11/09 02:08:31;;;;;;;11.40;7.70;;;;;;;7.10;83.10;99867.78;103635;1254;96358;-70
2023/11/09 02:11:08;;;;;;;13.90;9.10;;;;;;;7.08;83.02;99868.33;103462;1253;137879;-70
2023/11/09 02:13:37;;;;;;;10.70;8.00;;;;;;;7.08;82.99;99870.73;103518;1253;108187;-70
2023/11/09 02:16:08;;;;;;;12.60;8.10;;;;;;;7.11;83.05;99868.59;103349;1254;137944;-70
2023/11/09 02:18:36;;;;;;;12.90;8.50;;;;;;;7.13;82.98;99871.48;103602;1254;107258;-70
2023/11/09 02:21:04;;;;;;;13.30;8.30;;;;;;;7.11;82.81;99874.14;103800;1254;96357;-70
2023/11/09 02:23:34;;;;;;;11.00;7.50;;;;;;;7.07;82.95;99873.05;103550;1254;137755;-70
2023/11/09 02:26:13;;;;;;;11.60;7.10;;;;;;;7.04;82.75;99872.23;103312;1258;107210;-69
2023/11/09 02:29:00;;;;;;;11.30;8.10;;;;;;;7.02;82.91;99870.05;103556;1253;138522;-69
2023/11/09 02:31:48;;;;;;;12.30;7.90;;;;;;;7.03;83.00;99872.63;103355;1253;110372;-70
2023/11/09 02:34:27;;;;;;;13.80;8.70;;;;;;;7.04;83.02;99877.08;103265;1253;138140;-70
2023/11/09 02:37:14;;;;;;;13.00;8.80;;;;;;;7.05;82.88;99875.16;103406;1253;110643;-69
2023/11/09 02:40:04;;;;;;;15.80;8.90;;;;;;;7.02;82.83;99877.48;103183;1254;137329;-69
2023/11/09 02:42:36;;;;;;;14.20;8.20;;;;;;;6.95;82.80;99879.86;103445;1257;97010;-70
2023/11/09 02:45:16;;;;;;;10.30;7.70;;;;;;;6.90;82.78;99882.75;103273;1253;138200;-69
2023/11/09 02:48:04;;;;;;;10.10;7.10;;;;;;;6.84;82.88;99880.31;103396;1256;96558;-70
2023/11/09 02:50:45;;;;;;;12.70;7.70;;;;;;;6.78;82.80;99878.02;103708;1253;110487;-70
2023/11/09 02:53:33;;;;;;;11.20;8.00;;;;;;;6.72;82.77;99873.33;103280;1254;137543;-70
2023/11/09 02:56:11;;;;;;;12.40;8.30;;;;;;;6.70;83.00;99875.27;103372;1253;96478;-70
2023/11/09 02:58:50;;;;;;;12.50;8.40;;;;;;;6.64;83.08;99869.70;103240;1253;137174;-70
2023/11/09 03:01:27;;;;;;;16.90;9.30;;;;;;;6.58;83.10;99871.20;103428;1253;96565;-70
2023/11/09 03:04:15;;;;;;;12.10;8.90;;;;;;;6.48;83.37;99879.38;103311;1253;137486;-70
2023/11/09 03:06:45;;;;;;;11.80;7.80;;;;;;;6.43;83.65;99881.02;103361;1254;108653;-70
2023/11/09 03:09:34;;;;;;;11.60;7.90;;;;;;;6.37;83.60;99885.48;103311;1254;138959;-70
2023/11/09 03:12:21;;;;;;;14.10;8.30;;;;;;;6.33;83.95;99887.64;103350;1257;108367;-70
2023/11/09 03:15:10;;;;;;;15.90;10.00;;;;;;;6.33;84.07;99889.53;103431;1256;96448;-70
2023/11/09 03:17:49;;;;;;;13.90;8.90;;;;;;;6.37;84.22;99887.20;103650;1253;110460;-70
2023/11/09 03:20:24;;;;;;;;;;;;;;;6.39;84.25;99885.95;103452;1253;107688;-70
2023/11/09 03:23:02;;;;;;;14.10;10.60;;;;;;;6.35;84.30;99889.49;103427;1253;123597;-69
2023/11/09 03:25:50;;;;;;;14.40;9.40;;;;;;;6.27;84.49;99889.29;103488;1253;107561;-70
2023/11/09 03:28:18;;;;;;;15.00;9.40;;;;;;;6.21;84.63;99892.17;103463;1253;138050;-70
2023/11/09 03:30:49;;;;;;;15.20;9.20;;;;;;;6.15;84.67;99888.34;103500;1253;111482;-70
2023/11/09 03:33:20;;;;;;;12.30;9.20;;;;;;;6.14;84.67;99892.70;103344;1253;138143;-69
2023/11/09 03:35:48;;;;;;;16.70;9.10;;;;;;;6.10;84.65;99893.45;103500;1253;96991;-70
2023/11/09 03:38:15;;;;;;;12.70;8.90;;;;;;;6.10;84.94;99900.02;103658;1257;107568;-70
2023/11/09 03:40:42;;;;;;;14.40;9.50;;;;;;;6.07;84.94;99898.33;103326;1254;137352;-70
2023/11/09 03:43:30;;;;;;;14.10;10.00;;;;;;;6.05;84.77;99898.18;103464;1253;110585;-70
2023/11/09 03:46:16;;;;;;;;;;;;;;;6.00;84.97;99897.08;103267;1254;137614;-70
2023/11/09 03:49:03;;;;;;;14.00;9.80;;;;;;;5.93;85.26;99898.94;103510;1253;96600;-70
2023/11/09 03:51:41;;;;;;;13.10;9.30;;;;;;;5.88;85.18;99894.68;103351;1253;136254;-70
2023/11/09 03:54:18;;;;;;;13.20;8.90;;;;;;;5.82;85.31;99889.30;103432;1253;96342;-70
2023/11/09 03:57:06;;;;;;;14.00;9.20;;;;;;;5.77;85.36;99886.97;103410;1254;110714;-70
2023/11/09 03:59:43;;;;;;;15.80;8.90;;;;;;;5.74;85.99;99889.09;103372;1254;109077;-70
2023/11/09 04:02:29;;;;;;;;;;;;;;;5.69;86.01;99887.95;103473;1253;96571;-70
2023/11/09 04:05:18;;;;;;;11.80;8.80;;;;;;;5.65;86.09;99889.08;103423;1257;125351;-70
2023/11/09 04:08:06;;;;;;;14.40;9.30;;;;;;;5.65;86.18;99891.15;103534;1256;96450;-70
2023/11/09 04:10:54;;;;;;;17.00;8.80;;;;;;;5.62;86.11;99891.21;103238;1254;137216;-70
2023/11/09 04:13:21;;;;;;;13.90;10.00;;;;;;;5.59;86.07;99892.13;103393;1257;107650;-69
2023/11/09 04:15:48;;;;;;;12.30;8.70;;;;;;;5.55;86.32;99887.86;103273;1253;137756;-69
2023/11/09 04:18:15;;;;;;;15.60;8.60;;;;;;;5.53;86.70;99884.80;103612;1254;108545;-70
2023/11/09 04:20:43;;;;;;;14.40;8.60;;;;;;;5.47;86.66;99880.95;103520;1256;96447;-70
2023/11/09 04:23:10;;;;;;;14.10;8.60;;;;;;;5.44;86.89;99884.45;103475;1253;138189;-70
2023/11/09 04:25:37;;;;;;;13.00;8.60;;;;;;;5.42;86.91;99886.20;103487;1252;107466;-70
2023/11/09 04:28:23;;;;;;;13.30;8.10;;;;;;;5.41;87.07;99886.39;103332;1253;137990;-69
2023/11/09 04:31:11;;;;;;;12.60;8.50;;;;;;;5.42;87.24;99888.80;103607;1253;107692;-70
2023/11/09 04:33:53;;;;;;;13.70;9.00;;;;;;;5.42;87.30;99890.01;103698;1253;137554;-70
2023/11/09 04:36:43;;;;;;;13.10;9.10;;;;;;;5.39;87.16;99889.54;103642;1253;110756;-70
2023/11/09 04:39:31;;;;;;;15.20;9.70;;;;;;;5.38;87.15;99890.23;103304;1253;137476;-68
2023/11/09 04:42:19;;;;;;;15.50;8.80;;;;;;;5.33;87.26;99890.84;103386;1254;96517;-70
2023/11/09 04:45:05;;;;;;;;;;;;;;;5.30;87.21;99891.23;103546;1256;107895;-69
2023/11/09 04:47:58;;;;;;;11.60;8.70;;;;;;;5.26;87.33;99891.81;103415;1253;96511;-70
2023/11/09 04:50:40;;;;;;;12.90;8.70;;;;;;;5.25;87.54;99892.35;103704;1253;110602;-69
2023/11/09 04:53:31;;;;;;;11.60;8.40;;;;;;;5.25;87.58;99889.24;103417;1252;138112;-70
2023/11/09 04:56:38;;;;;;;10.20;7.70;;;;;;;5.24;87.63;99888.92;103636;1257;96493;-70
2023/11/09 05:08:42;;;;;;;12.10;9.30;;;;;;;5.20;87.84;99886.91;103434;1253;107686;-69
2023/11/09 05:11:29;;;;;;;13.90;9.00;;;;;;;5.12;87.79;99883.41;103402;1253;137207;-70
2023/11/09 05:14:17;;;;;;;12.10;8.20;;;;;;;5.09;87.95;99879.34;103444;1253;107150;-70
2023/11/09 05:17:05;;;;;;;12.40;8.20;;;;;;;5.08;87.91;99872.98;103209;1253;138487;-69
2023/11/09 05:19:55;;;;;;;14.30;8.30;;;;;;;5.07;88.06;99879.89;103422;1253;110383;-70
2023/11/09 05:22:43;;;;;;;10.50;7.70;;;;;;;5.06;88.12;99880.24;103256;1253;138269;-69
2023/11/09 05:25:30;;;;;;;11.50;7.80;;;;;;;5.07;88.12;99875.91;103359;1257;96390;-70
2023/11/09 05:27:58;;;;;;;12.10;9.00;;;;;;;5.07;87.84;99877.13;103330;1257;137406;-71
2023/11/09 05:30:45;;;;;;;12.20;9.20;;;;;;;5.04;88.07;99876.33;103441;1253;96585;-70
2023/11/09 05:33:13;;;;;;;12.30;8.60;;;;;;;5.04;88.03;99872.02;103442;1253;109358;-71
2023/11/09 05:35:53;;;;;;;14.10;8.70;;;;;;;5.01;87.93;99879.96;103404;1257;108557;-71
2023/11/09 05:38:39;;;;;;;;;;;;;;;4.98;87.94;99887.41;103428;1253;96482;-71
2023/11/09 05:41:27;;;;;;;13.60;8.60;;;;;;;4.93;88.16;99889.23;103237;1253;124159;-71
2023/11/09 05:44:14;;;;;;;10.60;8.40;;;;;;;4.91;88.21;99885.99;103340;1257;96581;-71
2023/11/09 05:47:00;;;;;;;;;;;;;;;4.92;88.02;99885.29;103298;1253;138079;-71
2023/11/09 05:49:48;;;;;;;12.60;8.40;;;;;;;4.90;88.14;99885.32;102897;1259;107592;-71
2023/11/09 05:52:36;;;;;;;13.50;8.50;;;;;;;4.90;88.31;99888.59;102831;1259;137949;-71
2023/11/09 05:55:15;;;;;;;11.80;9.20;;;;;;;4.88;88.39;99892.58;103228;1259;107616;-71
2023/11/09 05:58:00;;;;;;;;;;;;;;;4.84;88.47;99892.98;102950;1263;137456;-66
2023/11/09 06:00:28;;;;;;;11.30;8.20;;;;;;;4.80;88.46;99896.13;103000;1259;110098;-67
2023/11/09 06:02:57;;;;;;;16.20;8.20;;;;;;;4.79;88.45;99895.45;102945;1262;108936;-68
2023/11/09 06:05:25;;;;;;;13.70;8.80;;;;;;;4.80;88.34;99892.67;102973;1262;138263;-69
2023/11/09 06:07:53;;;;;;;13.50;8.50;;;;;;;4.83;88.79;99894.02;102999;1259;107900;-68
2023/11/09 06:10:21;;;;;;;12.70;8.50;;;;;;;4.85;88.76;99889.17;102843;1260;137873;-68
2023/11/09 06:12:48;;;;;;;12.50;8.60;;;;;;;4.90;88.57;99891.52;103107;1259;107580;-68
2023/11/09 06:15:34;;;;;;;;;;;;;;;5.02;88.50;99889.45;102858;1263;137483;-67
2023/11/09 06:18:04;;;;;;;13.30;9.30;;;;;;;5.07;88.35;99885.91;103092;1262;96483;-69
2023/11/09 06:20:47;;;;;;;15.90;9.70;;;;;;;5.21;88.36;99892.08;103104;1254;108825;-68
2023/11/09 06:23:24;;;;;;;14.50;8.90;;;;;;;5.34;87.95;99890.14;103468;1254;137316;-68
2023/11/09 06:26:10;;;;;;;;;;;;;;;5.49;87.64;99887.13;103412;1254;109987;-67
2023/11/09 06:28:38;;;;;;;12.10;8.30;;;;;;;5.66;87.42;99890.78;103325;1253;124605;-68
2023/11/09 06:31:26;;;;;;;12.70;8.30;;;;;;;5.89;86.97;99897.27;103401;1253;96432;-67
2023/11/09 06:33:54;;;;;;;14.40;9.20;;;;;;;6.12;86.14;99895.14;103306;1253;137068;-68
2023/11/09 06:36:29;;;;;;;12.50;8.70;;;;;;;6.35;85.60;99891.55;103633;1253;96358;-68
2023/11/09 06:39:00;;;;;;;13.80;8.30;;;;;;;6.57;84.81;99889.71;103444;1253;111199;-67
2023/11/09 06:41:28;;;;;;;13.10;9.00;;;;;;;6.82;84.01;99894.17;103381;1254;137415;-67
2023/11/09 06:43:56;;;;;;;19.30;10.00;;;;;;;7.04;83.11;99892.64;103460;1254;96423;-69
2023/11/09 06:46:26;;;;;;;15.50;9.30;;;;;;;7.32;82.59;99891.44;103384;1256;138207;-67
2023/11/09 06:48:54;;;;;;;11.30;8.00;;;;;;;7.65;81.80;99894.59;103465;1257;96457;-68
2023/11/09 06:51:21;;;;;;;14.40;8.50;;;;;;;7.96;80.50;99884.73;103454;1253;110405;-67
2023/11/09 06:53:49;;;;;;;12.80;8.20;;;;;;;8.30;79.35;99881.02;103670;1253;137884;-67
2023/11/09 06:56:16;;;;;;;13.20;7.90;;;;;;;8.62;77.79;99878.92;103490;1254;96368;-67
2023/11/09 06:58:43;;;;;;;12.80;8.20;;;;;;;8.87;76.42;99881.80;103342;1257;137189;-67
2023/11/09 07:01:21;;;;;;;11.60;8.80;;;;;;;9.19;75.87;99879.23;103308;1253;96556;-67
2023/11/09 07:03:49;;;;;;;11.20;8.00;;;;;;;9.51;75.27;99883.18;103191;1253;138134;-66
2023/11/09 07:06:19;;;;;;;14.90;9.00;;;;;;;9.76;73.68;99884.07;104502;1252;107125;-70
2023/11/09 07:08:51;;;;;;;16.30;8.80;;;;;;;9.86;73.61;99881.30;103453;1253;96749;-70
2023/11/09 07:11:39;;;;;;;12.80;7.70;;;;;;;10.00;73.10;99880.27;103376;1253;137290;-70
2023/11/09 07:14:16;;;;;;;12.50;7.90;;;;;;;10.01;72.86;99875.02;103546;1254;96543;-70
2023/11/09 07:16:43;;;;;;;13.00;8.10;;;;;;;9.90;72.11;99878.39;103327;1253;137899;-71
2023/11/09 07:19:19;;;;;;;11.40;7.30;;;;;;;9.79;72.31;99883.80;103363;1253;107541;-70
2023/11/09 07:21:47;;;;;;;12.20;7.90;;;;;;;9.81;71.68;99887.71;103188;1258;137970;-70
2023/11/09 07:24:17;;;;;;;12.30;8.10;;;;;;;9.83;71.70;99881.92;103442;1253;108082;-70
2023/11/09 07:26:45;;;;;;;12.60;8.00;;;;;;;9.89;72.03;99882.23;103421;1253;96444;-70
2023/11/09 07:29:13;;;;;;;15.60;8.10;;;;;;;9.97;71.64;99881.75;103511;1252;137338;-72
2023/11/09 07:31:52;;;;;;;14.40;9.00;;;;;;;9.96;70.84;99884.04;103286;1253;108494;-71
2023/11/09 07:34:23;;;;;;;13.60;8.50;;;;;;;9.90;70.41;99880.47;103335;1253;137471;-71
2023/11/09 07:36:51;;;;;;;12.90;8.00;;;;;;;9.93;70.48;99878.44;103397;1256;107859;-71
2023/11/09 07:39:31;;;;;;;14.90;8.40;;;;;;;9.91;70.21;99871.58;103409;1256;96558;-72
2023/11/09 07:42:05;;;;;;;15.80;9.00;;;;;;;9.89;69.93;99874.93;103428;1254;110527;-71
2023/11/09 07:44:33;;;;;;;14.80;8.50;;;;;;;9.91;70.32;99873.14;103512;1253;107648;-71
2023/11/09 07:47:04;;;;;;;12.40;8.60;;;;;;;10.03;70.23;99878.27;103322;1257;138164;-71
2023/11/09 07:49:32;;;;;;;12.80;8.70;;;;;;;10.11;70.17;99876.75;103460;1255;108284;-71
2023/11/09 07:52:03;;;;;;;11.60;8.00;;;;;;;10.13;69.76;99873.20;103305;1254;137835;-69
2023/11/09 07:54:34;;;;;;;16.90;8.90;;;;;;;10.20;69.62;99878.85;103475;1253;108895;-68
2023/11/09 07:57:02;;;;;;;11.60;8.20;;;;;;;10.32;69.59;99879.32;103567;1252;107594;-69
2023/11/09 07:59:30;;;;;;;11.00;7.60;;;;;;;10.39;68.74;99877.49;103396;1257;138123;-68
2023/11/09 08:01:57;;;;;;;14.60;8.60;;;;;;;10.44;69.04;99870.02;103423;1253;108565;-70
2023/11/09 08:04:29;;;;;;;14.30;8.50;;;;;;;10.55;68.79;99871.13;103205;1253;138137;-69
2023/11/09 08:06:56;;;;;;;13.00;8.30;;;;;;;10.63;68.63;99871.55;99421;1258;5267013;-68
2023/11/09 08:09:24;;;;;;;12.30;8.60;;;;;;;10.73;68.39;99874.29;103430;1252;96474;-69
2023/11/09 08:11:51;;;;;;;13.10;7.90;;;;;;;10.85;68.10;99870.67;103253;1253;137556;-69
2023/11/09 08:14:19;;;;;;;15.30;8.60;;;;;;;11.05;67.68;99865.20;103596;1252;108334;-70
2023/11/09 08:16:46;;;;;;;16.10;8.70;;;;;;;11.24;67.01;99862.84;103371;1253;137608;-70
2023/11/09 08:19:14;;;;;;;15.50;8.60;;;;;;;11.47;66.92;99856.31;103476;1257;109108;-70
2023/11/09 08:21:41;;;;;;;14.90;7.60;;;;;;;11.76;66.26;99855.61;103225;1253;137775;-69
2023/11/09 08:24:11;;;;;;;14.30;8.20;;;;;;;12.06;65.38;99858.70;103455;1253;110591;-70
2023/11/09 08:26:39;;;;;;;15.80;7.30;;;;;;;12.36;64.51;99854.55;103471;1253;105563;-69
2023/11/09 08:29:07;;;;;;;11.90;6.80;;;;;;;12.60;62.92;99857.25;103328;1253;137573;-71
2023/11/09 08:31:34;;;;;;;11.90;6.50;;;;;;;12.88;61.88;99852.11;103489;1256;108879;-71
2023/11/09 08:34:02;;;;;;;9.30;5.70;;;;;;;13.14;61.18;99858.70;103200;1253;138694;-70
2023/11/09 08:36:29;;;;;;;12.40;6.60;;;;;;;13.45;60.01;99857.71;103407;1253;110528;-70
2023/11/09 08:38:57;;;;;;;10.20;6.40;;;;;;;13.74;59.98;99856.38;103291;1257;108115;-70
2023/11/09 08:41:26;;;;;;;11.80;6.50;;;;;;;13.99;58.22;99856.66;103457;1253;137473;-69
2023/11/09 08:43:53;;;;;;;10.10;6.20;;;;;;;14.13;58.32;99853.30;103407;1253;107488;-69
2023/11/09 08:46:22;;;;;;;10.30;6.10;;;;;;;14.20;57.93;99858.55;103364;1253;137610;-69
2023/11/09 08:48:49;;;;;;;11.70;6.90;;;;;;;14.11;57.87;99854.65;103514;1253;110233;-69
2023/11/09 08:51:16;;;;;;;11.90;6.00;;;;;;;13.89;57.63;99859.81;103398;1254;108741;-70
2023/11/09 08:53:44;;;;;;;12.30;6.30;;;;;;;13.55;56.66;99858.27;103298;1253;138135;-70
2023/11/09 08:56:16;;;;;;;11.20;6.20;;;;;;;13.12;56.96;99856.85;103249;1256;172957;-70
2023/11/09 08:58:43;;;;;;;12.80;6.60;;;;;;;12.77;57.67;99851.23;103283;1254;137657;-70
2023/11/09 09:01:17;;;;;;;9.20;6.60;;;;;;;12.57;58.42;99852.89;103355;1259;109266;-70
2023/11/09 09:03:50;;;;;;;12.70;6.90;;;;;;;12.40;58.83;99840.91;103238;1257;138719;-70
2023/11/09 09:06:21;;;;;;;10.50;6.70;;;;;;;12.07;58.71;99847.83;103340;1258;96526;-70
2023/11/09 09:08:49;;;;;;;12.50;7.10;;;;;;;11.69;59.25;99844.44;103184;1257;108343;-70
2023/11/09 09:11:17;;;;;;;12.30;6.90;;;;;;;11.41;59.57;99855.89;103372;1253;137844;-70
2023/11/09 09:13:45;;;;;;;11.10;6.90;;;;;;;11.32;60.48;99845.81;103278;1253;109475;-70
2023/11/09 09:16:15;;;;;;;14.00;6.60;;;;;;;11.38;60.69;99847.83;103191;1254;138392;-70
2023/11/09 09:18:46;;;;;;;12.70;6.80;;;;;;;11.40;61.01;99844.44;103322;1254;96457;-70
2023/11/09 09:21:15;;;;;;;10.20;6.70;;;;;;;11.52;60.44;99842.55;103254;1257;107054;-70
2023/11/09 09:23:42;;;;;;;13.90;7.20;;;;;;;11.63;60.11;99834.92;103172;1253;137565;-70
2023/11/09 09:26:10;;;;;;;11.30;6.60;;;;;;;11.76;59.72;99839.40;103344;1255;110250;-71
2023/11/09 09:28:47;;;;;;;9.80;6.70;;;;;;;11.94;59.51;99832.38;103134;1254;137487;-70
2023/11/09 09:31:19;;;;;;;12.40;6.60;;;;;;;12.12;59.70;99826.02;103394;1256;96464;-70
2023/11/09 09:34:02;;;;;;;10.80;6.50;;;;;;;12.35;59.60;99822.33;103239;1256;138070;-70
2023/11/09 09:36:50;;;;;;;11.60;6.80;;;;;;;12.70;59.25;99818.95;103322;1254;96498;-70
2023/11/09 09:39:17;;;;;;;11.60;6.60;;;;;;;12.88;57.67;99817.19;103153;1254;109760;-70
2023/11/09 09:41:51;;;;;;;12.00;6.40;;;;;;;12.96;56.86;99816.45;103206;1253;137520;-70
2023/11/09 09:44:19;;;;;;;8.50;5.70;;;;;;;13.08;56.36;99814.83;103420;1258;96449;-70
2023/11/09 09:46:48;;;;;;;11.40;5.90;;;;;;;13.15;56.47;99804.88;103296;1253;138441;-71
2023/11/09 09:49:17;;;;;;;9.30;5.50;;;;;;;13.38;56.14;99806.39;103427;1258;96362;-71
2023/11/09 09:51:44;;;;;;;11.10;6.50;;;;;;;13.47;54.68;99802.08;103258;1253;137525;-69
2023/11/09 09:54:14;;;;;;;9.30;6.10;;;;;;;13.50;54.70;99798.27;103317;1257;107961;-74
2023/11/09 09:56:42;;;;;;;9.70;6.00;;;;;;;13.71;55.14;99795.09;103436;1257;97229;-72
2023/11/09 09:59:10;;;;;;;10.00;5.60;;;;;;;13.91;54.09;99795.23;103229;1253;137223;-72
2023/11/09 10:01:47;;;;;;;9.50;5.70;;;;;;;13.93;52.84;99793.36;103403;1253;96539;-72
2023/11/09 10:04:16;;;;;;;11.90;6.40;;;;;;;13.88;53.62;99787.87;103714;1253;137172;-72
2023/11/09 10:06:46;;;;;;;9.10;6.20;;;;;;;13.95;53.59;99782.08;103412;1253;110021;-71
2023/11/09 10:09:26;;;;;;;13.60;6.60;;;;;;;13.95;52.23;99777.21;103387;1253;96431;-75
2023/11/09 10:11:55;;;;;;;9.50;5.70;;;;;;;13.90;52.31;99774.30;103099;1257;137865;-75
2023/11/09 10:14:23;;;;;;;11.60;6.20;;;;;;;13.89;53.14;99761.59;103268;1257;96458;-73
2023/11/09 10:17:11;;;;;;;12.60;6.50;;;;;;;13.97;52.68;99761.70;103393;1253;137464;-74
2023/11/09 10:19:46;;;;;;;9.60;6.30;;;;;;;14.06;53.46;99765.94;103329;1253;108027;-74
2023/11/09 10:22:20;;;;;;;12.80;5.80;;;;;;;14.14;52.35;99773.00;103387;1253;137627;-74
2023/11/09 10:24:52;;;;;;;9.60;6.30;;;;;;;14.13;53.02;99755.39;103435;1253;108439;-75
2023/11/09 10:27:30;;;;;;;10.50;6.00;;;;;;;14.16;51.07;99758.03;103193;1257;96422;-73
2023/11/09 10:29:57;;;;;;;10.40;5.70;;;;;;;14.00;51.15;99764.02;103383;1253;109967;-75
2023/11/09 10:32:25;;;;;;;12.40;6.20;;;;;;;13.92;52.17;99758.46;103351;1253;106536;-74
2023/11/09 10:34:54;;;;;;;10.10;5.80;;;;;;;13.80;51.37;99749.86;103199;1257;137587;-76
2023/11/09 10:37:22;;;;;;;8.30;5.50;;;;;;;13.62;51.67;99751.33;103532;1253;107655;-74
2023/11/09 10:39:52;;;;;;;12.00;5.90;;;;;;;13.49;52.04;99748.52;103257;1253;137708;-73
2023/11/09 10:42:24;;;;;;;8.10;5.90;;;;;;;13.35;52.46;99741.92;103300;1260;110413;-74
2023/11/09 10:44:53;;;;;;;9.70;5.90;;;;;;;13.23;52.46;99737.29;103242;1257;108951;-74
2023/11/09 10:47:25;;;;;;;9.30;5.70;;;;;;;13.11;53.02;99735.06;103121;1253;137511;-74
2023/11/09 10:49:53;;;;;;;10.30;6.00;;;;;;;13.08;53.28;99728.92;103450;1253;107402;-73
2023/11/09 10:52:22;;;;;;;10.20;6.30;;;;;;;13.12;53.96;99717.92;103516;1257;137999;-72
2023/11/09 10:54:55;;;;;;;11.40;6.90;;;;;;;13.19;53.66;99723.69;103650;1253;110384;-74
2023/11/09 10:57:23;;;;;;;10.30;4.90;;;;;;;13.18;52.94;99729.33;103400;1253;109499;-68
2023/11/09 10:59:51;;;;;;;11.70;5.00;;;;;;;13.07;53.51;99718.02;103382;1253;138082;-74
2023/11/09 11:02:20;;;;;;;9.90;5.50;;;;;;;13.02;53.76;99723.49;103200;1256;107738;-74
2023/11/09 11:04:51;;;;;;;10.80;5.30;;;;;;;12.98;53.70;99720.19;103267;1253;138344;-74
2023/11/09 11:07:21;;;;;;;7.90;5.10;;;;;;;12.92;54.03;99713.69;103741;1253;109985;-72
2023/11/09 11:09:51;;;;;;;9.00;5.20;;;;;;;12.90;54.04;99724.27;103215;1258;138023;-74
2023/11/09 11:12:23;;;;;;;9.20;5.60;;;;;;;12.80;53.62;99734.91;103336;1253;96862;-73
2023/11/09 11:14:55;;;;;;;8.70;5.60;;;;;;;12.70;54.54;99725.80;103373;1253;107791;-62
2023/11/09 11:17:41;;;;;;;10.00;5.70;;;;;;;12.69;54.79;99725.12;103625;1253;137857;-61
2023/11/09 11:20:42;;;;;;;12.50;6.10;;;;;;;12.60;54.75;99726.27;103559;1253;107977;-62
2023/11/09 11:23:32;;;;;;;14.80;6.50;;;;;;;12.54;55.36;99725.50;103139;1253;137580;-74
2023/11/09 11:26:10;;;;;;;11.60;6.70;;;;;;;12.50;55.59;99719.08;103203;1255;98045;-75
2023/11/09 11:28:40;;;;;;;13.80;6.40;;;;;;;12.49;55.32;99725.41;102977;1258;137316;-74
2023/11/09 11:31:13;;;;;;;9.70;6.20;;;;;;;12.45;55.17;99732.44;103043;1257;138898;-75
2023/11/09 11:33:41;;;;;;;13.20;6.50;;;;;;;12.39;55.93;99712.30;103451;1253;109087;-75
2023/11/09 11:36:30;;;;;;;11.00;6.10;;;;;;;12.44;56.26;99712.27;103280;1257;107274;-75
2023/11/09 11:39:35;;;;;;;15.80;6.90;;;;;;;12.46;56.37;99714.94;103145;1258;137554;-75
2023/11/09 11:42:19;;;;;;;14.30;6.70;;;;;;;12.50;56.42;99706.39;103370;1254;107793;-75
2023/11/09 11:44:52;;;;;;;14.90;5.80;;;;;;;12.51;56.14;99706.67;103286;1256;138046;-75
2023/11/09 11:47:45;;;;;;;11.70;5.10;;;;;;;12.51;56.17;99702.48;103428;1253;110280;-76
2023/11/09 11:50:13;;;;;;;12.20;5.20;;;;;;;12.53;56.12;99698.52;103345;1253;137699;-75
2023/11/09 11:52:41;;;;;;;7.40;4.40;;;;;;;12.55;54.90;99710.27;103464;1253;96501;-75
2023/11/09 11:55:32;;;;;;;7.10;4.30;;;;;;;12.45;54.74;99698.39;103292;1254;137538;-75
2023/11/09 11:58:07;;;;;;;9.60;4.70;;;;;;;12.37;54.36;99699.66;104037;1252;96453;-75
2023/11/09 12:00:43;;;;;;;9.10;4.30;;;;;;;12.23;54.64;99691.80;103429;1253;109519;-75
2023/11/09 12:03:14;;;;;;;9.10;4.50;;;;;;;12.11;54.97;99692.38;103403;1253;137075;-75
2023/11/09 12:05:43;;;;;;;10.40;6.00;;;;;;;12.05;55.63;99690.73;103355;1253;96551;-75
2023/11/09 12:08:16;;;;;;;9.80;5.20;;;;;;;12.06;56.35;99686.67;103287;1253;137503;-74